CheckWX is a tool to help pilots better visualize weather data.  It is not intended as a substitute for an official pre-flight weather briefing.

08:43:52 UTC

DAON TAF
Zenata – Messali El Hadj Airport
Tlemcen, Algeria
TAF DAON 180500Z 1806/1906 VRB02KT CAVOK BECMG 1809/1812 04012KT BECMG 1815/1818 VRB02KT

Oct-18@
06:00 UTC

Oct-18 @ 06:00 UTC

Oct-18@
09:00 UTC

Oct-18 @ 09:00 UTC

TAF DAON 180500Z 1806/1906 VRB02KT CAVOK
Wind
  • Variable at 2 KTS
Conditions
No significant weather
Cloud Levels
  • No significant clouds

Oct-18@
09:00 UTC

Oct-18 @ 09:00 UTC

Oct-18@
15:00 UTC

Oct-18 @ 15:00 UTC

BECMG 1809/1812 04012KT

Becoming

Becoming Conditions expected by Fri, Oct 18, 2019 @ 12:00 UTC

Wind
  • 040° at 12 KTS
Conditions
No significant weather
Cloud Levels
  • No significant clouds

Oct-18@
15:00 UTC

Oct-18 @ 15:00 UTC

Oct-19@
06:00 UTC

Oct-19 @ 06:00 UTC

BECMG 1815/1818 VRB02KT

Becoming

Becoming Conditions expected by Fri, Oct 18, 2019 @ 18:00 UTC

Wind
  • Variable at 2 KTS
Conditions
No significant weather
Cloud Levels
  • No significant clouds